sensor_id;sensor_type;location;lat;lon;timestamp;P1;durP1;ratioP1;P2;durP2;ratioP2
39020;SDS011;25188;51.958;5.842;2022-07-19T00:01:34;4.30;;;2.72;;
39020;SDS011;25188;51.958;5.842;2022-07-19T00:04:00;6.00;;;2.75;;
39020;SDS011;25188;51.958;5.842;2022-07-19T00:06:26;5.45;;;2.90;;
39020;SDS011;25188;51.958;5.842;2022-07-19T00:08:51;5.40;;;2.85;;
39020;SDS011;25188;51.958;5.842;2022-07-19T00:11:17;6.47;;;2.50;;
39020;SDS011;25188;51.958;5.842;2022-07-19T00:13:43;6.30;;;2.65;;
39020;SDS011;25188;51.958;5.842;2022-07-19T00:16:09;7.00;;;2.55;;
39020;SDS011;25188;51.958;5.842;2022-07-19T00:18:34;4.82;;;2.40;;
39020;SDS011;25188;51.958;5.842;2022-07-19T00:21:00;5.32;;;2.80;;
39020;SDS011;25188;51.958;5.842;2022-07-19T00:23:26;4.65;;;2.53;;
39020;SDS011;25188;51.958;5.842;2022-07-19T00:25:51;6.75;;;3.05;;
39020;SDS011;25188;51.958;5.842;2022-07-19T00:28:17;6.85;;;3.03;;
39020;SDS011;25188;51.958;5.842;2022-07-19T00:30:43;7.93;;;2.83;;
39020;SDS011;25188;51.958;5.842;2022-07-19T00:33:08;8.15;;;3.25;;
39020;SDS011;25188;51.958;5.842;2022-07-19T00:35:35;6.65;;;3.05;;
39020;SDS011;25188;51.958;5.842;2022-07-19T00:38:08;7.80;;;3.50;;
39020;SDS011;25188;51.958;5.842;2022-07-19T00:40:39;5.97;;;3.22;;
39020;SDS011;25188;51.958;5.842;2022-07-19T00:43:05;5.13;;;2.88;;
39020;SDS011;25188;51.958;5.842;2022-07-19T00:45:32;5.93;;;2.72;;
39020;SDS011;25188;51.958;5.842;2022-07-19T00:47:57;7.70;;;2.75;;
39020;SDS011;25188;51.958;5.842;2022-07-19T00:50:23;5.45;;;2.42;;
39020;SDS011;25188;51.958;5.842;2022-07-19T00:52:50;6.43;;;2.90;;
39020;SDS011;25188;51.958;5.842;2022-07-19T00:55:18;5.68;;;2.45;;
39020;SDS011;25188;51.958;5.842;2022-07-19T00:57:44;8.38;;;2.63;;
39020;SDS011;25188;51.958;5.842;2022-07-19T01:00:11;5.45;;;2.08;;
39020;SDS011;25188;51.958;5.842;2022-07-19T01:02:37;8.93;;;2.70;;
39020;SDS011;25188;51.958;5.842;2022-07-19T01:05:03;6.13;;;2.15;;
39020;SDS011;25188;51.958;5.842;2022-07-19T01:07:31;5.28;;;2.60;;
39020;SDS011;25188;51.958;5.842;2022-07-19T01:09:57;4.43;;;2.63;;
39020;SDS011;25188;51.958;5.842;2022-07-19T01:12:22;6.00;;;2.75;;
39020;SDS011;25188;51.958;5.842;2022-07-19T01:14:49;5.70;;;2.67;;
39020;SDS011;25188;51.958;5.842;2022-07-19T01:17:20;4.32;;;2.38;;
39020;SDS011;25188;51.958;5.842;2022-07-19T01:19:45;6.13;;;2.78;;
39020;SDS011;25188;51.958;5.842;2022-07-19T01:22:11;6.47;;;2.13;;
39020;SDS011;25188;51.958;5.842;2022-07-19T01:24:36;8.15;;;2.70;;
39020;SDS011;25188;51.958;5.842;2022-07-19T01:27:02;5.72;;;2.28;;
39020;SDS011;25188;51.958;5.842;2022-07-19T01:29:28;4.53;;;2.40;;
39020;SDS011;25188;51.958;5.842;2022-07-19T01:31:53;5.22;;;2.50;;
39020;SDS011;25188;51.958;5.842;2022-07-19T01:34:19;5.07;;;2.60;;
39020;SDS011;25188;51.958;5.842;2022-07-19T01:36:45;5.82;;;2.00;;
39020;SDS011;25188;51.958;5.842;2022-07-19T01:39:10;5.47;;;2.40;;
39020;SDS011;25188;51.958;5.842;2022-07-19T01:41:36;6.97;;;2.20;;
39020;SDS011;25188;51.958;5.842;2022-07-19T01:44:01;6.32;;;2.20;;
39020;SDS011;25188;51.958;5.842;2022-07-19T01:46:27;5.78;;;2.35;;
39020;SDS011;25188;51.958;5.842;2022-07-19T01:48:53;4.88;;;2.25;;
39020;SDS011;25188;51.958;5.842;2022-07-19T01:51:18;4.05;;;1.90;;
39020;SDS011;25188;51.958;5.842;2022-07-19T01:53:44;5.50;;;2.60;;
39020;SDS011;25188;51.958;5.842;2022-07-19T01:56:09;4.75;;;2.47;;
39020;SDS011;25188;51.958;5.842;2022-07-19T01:58:35;10.95;;;2.90;;
39020;SDS011;25188;51.958;5.842;2022-07-19T02:01:01;5.82;;;3.30;;
39020;SDS011;25188;51.958;5.842;2022-07-19T02:03:27;7.13;;;3.10;;
39020;SDS011;25188;51.958;5.842;2022-07-19T02:05:52;7.50;;;3.20;;
39020;SDS011;25188;51.958;5.842;2022-07-19T02:08:18;6.53;;;3.22;;
39020;SDS011;25188;51.958;5.842;2022-07-19T02:10:44;8.38;;;2.70;;
39020;SDS011;25188;51.958;5.842;2022-07-19T02:13:09;8.48;;;2.65;;
39020;SDS011;25188;51.958;5.842;2022-07-19T02:15:35;5.10;;;2.40;;
39020;SDS011;25188;51.958;5.842;2022-07-19T02:18:01;8.02;;;2.50;;
39020;SDS011;25188;51.958;5.842;2022-07-19T02:20:27;7.80;;;2.55;;
39020;SDS011;25188;51.958;5.842;2022-07-19T02:22:52;8.43;;;2.83;;
39020;SDS011;25188;51.958;5.842;2022-07-19T02:25:18;5.20;;;2.63;;
39020;SDS011;25188;51.958;5.842;2022-07-19T02:27:44;4.90;;;2.60;;
39020;SDS011;25188;51.958;5.842;2022-07-19T02:30:10;6.78;;;2.53;;
39020;SDS011;25188;51.958;5.842;2022-07-19T02:32:37;5.55;;;2.17;;
39020;SDS011;25188;51.958;5.842;2022-07-19T02:35:04;5.40;;;2.47;;
39020;SDS011;25188;51.958;5.842;2022-07-19T02:37:31;6.38;;;2.78;;
39020;SDS011;25188;51.958;5.842;2022-07-19T02:39:56;7.43;;;2.92;;
39020;SDS011;25188;51.958;5.842;2022-07-19T02:42:22;7.35;;;3.47;;
39020;SDS011;25188;51.958;5.842;2022-07-19T02:44:48;7.38;;;3.17;;
39020;SDS011;25188;51.958;5.842;2022-07-19T02:47:13;6.28;;;2.88;;
39020;SDS011;25188;51.958;5.842;2022-07-19T02:49:39;7.65;;;3.10;;
39020;SDS011;25188;51.958;5.842;2022-07-19T02:52:05;9.25;;;2.55;;
39020;SDS011;25188;51.958;5.842;2022-07-19T02:54:30;7.60;;;2.78;;
39020;SDS011;25188;51.958;5.842;2022-07-19T02:56:56;5.00;;;2.75;;
39020;SDS011;25188;51.958;5.842;2022-07-19T02:59:22;4.10;;;2.13;;
39020;SDS011;25188;51.958;5.842;2022-07-19T03:01:48;7.35;;;3.03;;
39020;SDS011;25188;51.958;5.842;2022-07-19T03:04:14;5.65;;;2.42;;
39020;SDS011;25188;51.958;5.842;2022-07-19T03:06:39;6.20;;;2.65;;
39020;SDS011;25188;51.958;5.842;2022-07-19T03:09:05;5.75;;;2.45;;
39020;SDS011;25188;51.958;5.842;2022-07-19T03:11:31;4.93;;;2.35;;
39020;SDS011;25188;51.958;5.842;2022-07-19T03:13:56;7.88;;;2.67;;
39020;SDS011;25188;51.958;5.842;2022-07-19T03:16:22;5.70;;;2.42;;
39020;SDS011;25188;51.958;5.842;2022-07-19T03:18:47;4.90;;;2.50;;
39020;SDS011;25188;51.958;5.842;2022-07-19T03:21:13;5.63;;;2.28;;
39020;SDS011;25188;51.958;5.842;2022-07-19T03:23:39;5.20;;;2.30;;
39020;SDS011;25188;51.958;5.842;2022-07-19T03:26:04;5.13;;;2.50;;
39020;SDS011;25188;51.958;5.842;2022-07-19T03:28:30;4.78;;;2.47;;
39020;SDS011;25188;51.958;5.842;2022-07-19T03:30:57;6.88;;;3.08;;
39020;SDS011;25188;51.958;5.842;2022-07-19T03:33:22;5.18;;;2.65;;
39020;SDS011;25188;51.958;5.842;2022-07-19T03:35:48;8.80;;;2.58;;
39020;SDS011;25188;51.958;5.842;2022-07-19T03:38:14;5.80;;;2.42;;
39020;SDS011;25188;51.958;5.842;2022-07-19T03:40:40;5.28;;;2.15;;
39020;SDS011;25188;51.958;5.842;2022-07-19T03:43:06;5.82;;;3.05;;
39020;SDS011;25188;51.958;5.842;2022-07-19T03:45:32;7.10;;;2.65;;
39020;SDS011;25188;51.958;5.842;2022-07-19T03:47:58;4.85;;;2.45;;
39020;SDS011;25188;51.958;5.842;2022-07-19T03:50:24;5.90;;;2.20;;
39020;SDS011;25188;51.958;5.842;2022-07-19T03:52:49;5.65;;;2.25;;
39020;SDS011;25188;51.958;5.842;2022-07-19T03:55:15;6.05;;;2.35;;
39020;SDS011;25188;51.958;5.842;2022-07-19T03:57:40;9.48;;;3.00;;
39020;SDS011;25188;51.958;5.842;2022-07-19T04:00:06;6.35;;;2.28;;
39020;SDS011;25188;51.958;5.842;2022-07-19T04:02:32;4.28;;;2.33;;
39020;SDS011;25188;51.958;5.842;2022-07-19T04:04:58;5.45;;;2.42;;
39020;SDS011;25188;51.958;5.842;2022-07-19T04:07:23;8.48;;;2.60;;
39020;SDS011;25188;51.958;5.842;2022-07-19T04:09:49;4.53;;;2.15;;
39020;SDS011;25188;51.958;5.842;2022-07-19T04:12:15;6.03;;;2.47;;
39020;SDS011;25188;51.958;5.842;2022-07-19T04:14:40;5.82;;;2.90;;
39020;SDS011;25188;51.958;5.842;2022-07-19T04:17:06;5.25;;;2.45;;
39020;SDS011;25188;51.958;5.842;2022-07-19T04:19:32;5.95;;;2.10;;
39020;SDS011;25188;51.958;5.842;2022-07-19T04:21:58;6.00;;;2.55;;
39020;SDS011;25188;51.958;5.842;2022-07-19T04:24:24;10.15;;;2.33;;
39020;SDS011;25188;51.958;5.842;2022-07-19T04:26:49;4.75;;;2.53;;
39020;SDS011;25188;51.958;5.842;2022-07-19T04:29:15;6.25;;;3.05;;
39020;SDS011;25188;51.958;5.842;2022-07-19T04:31:40;8.10;;;2.67;;
39020;SDS011;25188;51.958;5.842;2022-07-19T04:34:06;7.45;;;2.05;;
39020;SDS011;25188;51.958;5.842;2022-07-19T04:36:32;7.60;;;2.30;;
39020;SDS011;25188;51.958;5.842;2022-07-19T04:38:57;5.72;;;2.40;;
39020;SDS011;25188;51.958;5.842;2022-07-19T04:41:23;6.78;;;2.60;;
39020;SDS011;25188;51.958;5.842;2022-07-19T04:43:48;5.93;;;2.30;;
39020;SDS011;25188;51.958;5.842;2022-07-19T04:46:14;6.68;;;2.33;;
39020;SDS011;25188;51.958;5.842;2022-07-19T04:48:40;5.80;;;2.45;;
39020;SDS011;25188;51.958;5.842;2022-07-19T04:51:06;4.68;;;2.40;;
39020;SDS011;25188;51.958;5.842;2022-07-19T04:53:32;9.65;;;2.05;;
39020;SDS011;25188;51.958;5.842;2022-07-19T04:55:58;5.68;;;2.60;;
39020;SDS011;25188;51.958;5.842;2022-07-19T04:58:23;11.43;;;2.65;;
39020;SDS011;25188;51.958;5.842;2022-07-19T05:00:49;12.60;;;2.17;;
39020;SDS011;25188;51.958;5.842;2022-07-19T05:03:14;11.75;;;2.30;;
39020;SDS011;25188;51.958;5.842;2022-07-19T05:05:40;8.85;;;2.80;;
39020;SDS011;25188;51.958;5.842;2022-07-19T05:08:06;17.60;;;3.60;;
39020;SDS011;25188;51.958;5.842;2022-07-19T05:10:31;9.00;;;2.17;;
39020;SDS011;25188;51.958;5.842;2022-07-19T05:12:57;12.57;;;1.92;;
39020;SDS011;25188;51.958;5.842;2022-07-19T05:15:24;6.22;;;2.42;;
39020;SDS011;25188;51.958;5.842;2022-07-19T05:17:49;8.13;;;2.40;;
39020;SDS011;25188;51.958;5.842;2022-07-19T05:20:15;6.65;;;2.25;;
39020;SDS011;25188;51.958;5.842;2022-07-19T05:22:41;7.20;;;2.08;;
39020;SDS011;25188;51.958;5.842;2022-07-19T05:25:08;7.50;;;2.15;;
39020;SDS011;25188;51.958;5.842;2022-07-19T05:27:35;6.55;;;2.22;;
39020;SDS011;25188;51.958;5.842;2022-07-19T05:30:01;5.80;;;2.10;;
39020;SDS011;25188;51.958;5.842;2022-07-19T05:32:28;5.30;;;2.13;;
39020;SDS011;25188;51.958;5.842;2022-07-19T05:34:54;5.93;;;2.45;;
39020;SDS011;25188;51.958;5.842;2022-07-19T05:37:19;9.15;;;2.15;;
39020;SDS011;25188;51.958;5.842;2022-07-19T05:39:45;5.55;;;2.33;;
39020;SDS011;25188;51.958;5.842;2022-07-19T05:42:10;7.20;;;2.05;;
39020;SDS011;25188;51.958;5.842;2022-07-19T05:44:36;8.35;;;2.22;;
39020;SDS011;25188;51.958;5.842;2022-07-19T05:47:02;7.07;;;2.38;;
39020;SDS011;25188;51.958;5.842;2022-07-19T05:49:27;10.43;;;2.67;;
39020;SDS011;25188;51.958;5.842;2022-07-19T05:51:53;6.93;;;2.58;;
39020;SDS011;25188;51.958;5.842;2022-07-19T05:54:19;7.97;;;3.15;;
39020;SDS011;25188;51.958;5.842;2022-07-19T05:56:44;7.18;;;2.67;;
39020;SDS011;25188;51.958;5.842;2022-07-19T05:59:10;12.13;;;2.80;;
39020;SDS011;25188;51.958;5.842;2022-07-19T06:01:36;10.55;;;3.13;;
39020;SDS011;25188;51.958;5.842;2022-07-19T06:04:01;9.15;;;3.13;;
39020;SDS011;25188;51.958;5.842;2022-07-19T06:06:29;10.75;;;2.78;;
39020;SDS011;25188;51.958;5.842;2022-07-19T06:08:55;10.25;;;3.08;;
39020;SDS011;25188;51.958;5.842;2022-07-19T06:11:22;10.75;;;3.85;;
39020;SDS011;25188;51.958;5.842;2022-07-19T06:13:48;7.53;;;2.97;;
39020;SDS011;25188;51.958;5.842;2022-07-19T06:16:15;9.25;;;2.90;;
39020;SDS011;25188;51.958;5.842;2022-07-19T06:18:41;9.52;;;2.90;;
39020;SDS011;25188;51.958;5.842;2022-07-19T06:21:10;9.50;;;3.60;;
39020;SDS011;25188;51.958;5.842;2022-07-19T06:23:38;9.05;;;3.75;;
39020;SDS011;25188;51.958;5.842;2022-07-19T06:26:05;8.15;;;4.22;;
39020;SDS011;25188;51.958;5.842;2022-07-19T06:28:32;7.97;;;4.05;;
39020;SDS011;25188;51.958;5.842;2022-07-19T06:30:58;10.68;;;4.85;;
39020;SDS011;25188;51.958;5.842;2022-07-19T06:33:24;7.25;;;3.97;;
39020;SDS011;25188;51.958;5.842;2022-07-19T06:35:50;7.22;;;3.47;;
39020;SDS011;25188;51.958;5.842;2022-07-19T06:38:16;10.40;;;3.90;;
39020;SDS011;25188;51.958;5.842;2022-07-19T06:40:42;8.57;;;3.13;;
39020;SDS011;25188;51.958;5.842;2022-07-19T06:43:08;9.68;;;3.70;;
39020;SDS011;25188;51.958;5.842;2022-07-19T06:45:34;10.27;;;3.50;;
39020;SDS011;25188;51.958;5.842;2022-07-19T06:48:00;10.07;;;3.97;;
39020;SDS011;25188;51.958;5.842;2022-07-19T06:50:25;7.68;;;3.70;;
39020;SDS011;25188;51.958;5.842;2022-07-19T06:52:51;8.80;;;3.63;;
39020;SDS011;25188;51.958;5.842;2022-07-19T06:55:17;6.57;;;2.95;;
39020;SDS011;25188;51.958;5.842;2022-07-19T06:57:43;8.15;;;3.28;;
39020;SDS011;25188;51.958;5.842;2022-07-19T07:00:09;7.50;;;3.60;;
39020;SDS011;25188;51.958;5.842;2022-07-19T07:02:35;9.10;;;3.20;;
39020;SDS011;25188;51.958;5.842;2022-07-19T07:05:01;9.80;;;3.17;;
39020;SDS011;25188;51.958;5.842;2022-07-19T07:07:27;7.95;;;3.33;;
39020;SDS011;25188;51.958;5.842;2022-07-19T07:09:53;5.82;;;2.88;;
39020;SDS011;25188;51.958;5.842;2022-07-19T07:12:19;10.20;;;3.80;;
39020;SDS011;25188;51.958;5.842;2022-07-19T07:14:44;9.68;;;3.85;;
39020;SDS011;25188;51.958;5.842;2022-07-19T07:17:10;6.65;;;2.80;;
39020;SDS011;25188;51.958;5.842;2022-07-19T07:19:35;6.95;;;3.05;;
39020;SDS011;25188;51.958;5.842;2022-07-19T07:22:01;5.88;;;3.03;;
39020;SDS011;25188;51.958;5.842;2022-07-19T07:24:27;8.73;;;3.05;;
39020;SDS011;25188;51.958;5.842;2022-07-19T07:26:53;7.30;;;2.17;;
39020;SDS011;25188;51.958;5.842;2022-07-19T07:29:19;7.78;;;2.35;;
39020;SDS011;25188;51.958;5.842;2022-07-19T07:31:45;10.10;;;2.95;;
39020;SDS011;25188;51.958;5.842;2022-07-19T07:34:11;8.27;;;2.60;;
39020;SDS011;25188;51.958;5.842;2022-07-19T07:36:37;5.78;;;2.42;;
39020;SDS011;25188;51.958;5.842;2022-07-19T07:39:02;7.60;;;2.65;;
39020;SDS011;25188;51.958;5.842;2022-07-19T07:41:28;8.80;;;2.40;;
39020;SDS011;25188;51.958;5.842;2022-07-19T07:43:54;13.55;;;2.83;;
39020;SDS011;25188;51.958;5.842;2022-07-19T07:46:19;6.45;;;2.50;;
39020;SDS011;25188;51.958;5.842;2022-07-19T07:48:45;7.43;;;2.50;;
39020;SDS011;25188;51.958;5.842;2022-07-19T07:51:11;13.75;;;2.38;;
39020;SDS011;25188;51.958;5.842;2022-07-19T07:53:36;6.05;;;2.58;;
39020;SDS011;25188;51.958;5.842;2022-07-19T07:56:02;10.27;;;3.30;;
39020;SDS011;25188;51.958;5.842;2022-07-19T07:58:28;6.38;;;2.42;;
39020;SDS011;25188;51.958;5.842;2022-07-19T08:00:54;8.07;;;2.80;;
39020;SDS011;25188;51.958;5.842;2022-07-19T08:03:19;7.45;;;2.80;;
39020;SDS011;25188;51.958;5.842;2022-07-19T08:05:45;7.07;;;2.38;;
39020;SDS011;25188;51.958;5.842;2022-07-19T08:08:13;8.05;;;2.33;;
39020;SDS011;25188;51.958;5.842;2022-07-19T08:10:39;5.85;;;2.30;;
39020;SDS011;25188;51.958;5.842;2022-07-19T08:13:05;7.50;;;2.53;;
39020;SDS011;25188;51.958;5.842;2022-07-19T08:15:30;6.45;;;2.35;;
39020;SDS011;25188;51.958;5.842;2022-07-19T08:17:56;8.68;;;2.35;;
39020;SDS011;25188;51.958;5.842;2022-07-19T08:20:22;8.93;;;2.50;;
39020;SDS011;25188;51.958;5.842;2022-07-19T08:22:47;9.45;;;2.13;;
39020;SDS011;25188;51.958;5.842;2022-07-19T08:25:13;7.03;;;2.47;;
39020;SDS011;25188;51.958;5.842;2022-07-19T08:27:42;5.13;;;2.38;;
39020;SDS011;25188;51.958;5.842;2022-07-19T08:30:08;10.23;;;2.10;;
39020;SDS011;25188;51.958;5.842;2022-07-19T08:32:35;6.35;;;2.35;;
39020;SDS011;25188;51.958;5.842;2022-07-19T08:35:01;6.68;;;1.75;;
39020;SDS011;25188;51.958;5.842;2022-07-19T08:37:28;8.50;;;2.30;;
39020;SDS011;25188;51.958;5.842;2022-07-19T08:39:54;11.50;;;2.50;;
39020;SDS011;25188;51.958;5.842;2022-07-19T08:42:20;6.20;;;1.92;;
39020;SDS011;25188;51.958;5.842;2022-07-19T08:44:47;6.85;;;2.28;;
39020;SDS011;25188;51.958;5.842;2022-07-19T08:47:20;4.63;;;1.90;;
39020;SDS011;25188;51.958;5.842;2022-07-19T08:49:46;8.38;;;1.95;;
39020;SDS011;25188;51.958;5.842;2022-07-19T08:52:13;6.55;;;2.22;;
39020;SDS011;25188;51.958;5.842;2022-07-19T08:54:41;5.38;;;1.70;;
39020;SDS011;25188;51.958;5.842;2022-07-19T08:57:07;6.63;;;1.67;;
39020;SDS011;25188;51.958;5.842;2022-07-19T08:59:51;5.60;;;1.63;;
39020;SDS011;25188;51.958;5.842;2022-07-19T09:02:17;4.40;;;1.60;;
39020;SDS011;25188;51.958;5.842;2022-07-19T09:04:42;6.75;;;1.65;;
39020;SDS011;25188;51.958;5.842;2022-07-19T09:07:08;6.60;;;1.83;;
39020;SDS011;25188;51.958;5.842;2022-07-19T09:09:34;5.68;;;1.90;;
39020;SDS011;25188;51.958;5.842;2022-07-19T09:12:02;8.65;;;2.03;;
39020;SDS011;25188;51.958;5.842;2022-07-19T09:14:33;5.72;;;1.63;;
39020;SDS011;25188;51.958;5.842;2022-07-19T09:19:45;4.82;;;1.77;;
39020;SDS011;25188;51.958;5.842;2022-07-19T09:24:41;9.15;;;1.60;;
39020;SDS011;25188;51.958;5.842;2022-07-19T09:27:12;5.75;;;1.52;;
39020;SDS011;25188;51.958;5.842;2022-07-19T09:29:40;3.60;;;1.42;;
39020;SDS011;25188;51.958;5.842;2022-07-19T09:37:16;3.17;;;1.13;;
39020;SDS011;25188;51.958;5.842;2022-07-19T09:39:44;6.40;;;1.48;;
39020;SDS011;25188;51.958;5.842;2022-07-19T09:42:13;7.55;;;1.25;;
39020;SDS011;25188;51.958;5.842;2022-07-19T09:44:39;4.15;;;1.98;;
39020;SDS011;25188;51.958;5.842;2022-07-19T09:47:06;7.63;;;1.73;;
39020;SDS011;25188;51.958;5.842;2022-07-19T09:49:31;4.88;;;1.83;;
39020;SDS011;25188;51.958;5.842;2022-07-19T09:51:57;7.10;;;1.52;;
39020;SDS011;25188;51.958;5.842;2022-07-19T09:54:24;5.28;;;1.70;;
39020;SDS011;25188;51.958;5.842;2022-07-19T09:56:52;8.88;;;1.40;;
39020;SDS011;25188;51.958;5.842;2022-07-19T09:59:19;4.22;;;1.45;;
39020;SDS011;25188;51.958;5.842;2022-07-19T10:01:46;6.80;;;1.42;;
39020;SDS011;25188;51.958;5.842;2022-07-19T10:04:15;4.32;;;1.90;;
39020;SDS011;25188;51.958;5.842;2022-07-19T10:06:44;5.88;;;1.30;;
39020;SDS011;25188;51.958;5.842;2022-07-19T10:09:11;3.50;;;1.52;;
39020;SDS011;25188;51.958;5.842;2022-07-19T10:11:38;4.53;;;1.55;;
39020;SDS011;25188;51.958;5.842;2022-07-19T10:14:04;3.90;;;1.38;;
39020;SDS011;25188;51.958;5.842;2022-07-19T10:21:46;7.85;;;1.88;;
39020;SDS011;25188;51.958;5.842;2022-07-19T10:24:13;9.60;;;1.55;;
39020;SDS011;25188;51.958;5.842;2022-07-19T10:26:41;4.53;;;1.38;;
39020;SDS011;25188;51.958;5.842;2022-07-19T10:29:16;3.72;;;1.10;;
39020;SDS011;25188;51.958;5.842;2022-07-19T10:31:42;7.35;;;1.10;;
39020;SDS011;25188;51.958;5.842;2022-07-19T10:37:12;10.07;;;1.40;;
39020;SDS011;25188;51.958;5.842;2022-07-19T10:39:38;5.70;;;1.30;;
39020;SDS011;25188;51.958;5.842;2022-07-19T10:42:05;4.38;;;1.30;;
39020;SDS011;25188;51.958;5.842;2022-07-19T10:44:32;4.90;;;1.25;;
39020;SDS011;25188;51.958;5.842;2022-07-19T10:46:58;4.32;;;1.55;;
39020;SDS011;25188;51.958;5.842;2022-07-19T10:57:51;4.07;;;1.45;;
39020;SDS011;25188;51.958;5.842;2022-07-19T11:00:22;5.97;;;1.20;;
39020;SDS011;25188;51.958;5.842;2022-07-19T11:02:50;2.50;;;1.17;;
39020;SDS011;25188;51.958;5.842;2022-07-19T11:05:20;5.63;;;1.10;;
39020;SDS011;25188;51.958;5.842;2022-07-19T11:07:50;3.42;;;0.98;;
39020;SDS011;25188;51.958;5.842;2022-07-19T11:10:23;2.88;;;1.00;;
39020;SDS011;25188;51.958;5.842;2022-07-19T11:12:50;3.05;;;1.05;;
39020;SDS011;25188;51.958;5.842;2022-07-19T11:15:17;5.85;;;1.33;;
39020;SDS011;25188;51.958;5.842;2022-07-19T11:17:56;5.60;;;1.00;;
39020;SDS011;25188;51.958;5.842;2022-07-19T11:20:27;3.65;;;1.10;;
39020;SDS011;25188;51.958;5.842;2022-07-19T11:22:55;2.60;;;1.35;;
39020;SDS011;25188;51.958;5.842;2022-07-19T11:25:32;3.33;;;1.17;;
39020;SDS011;25188;51.958;5.842;2022-07-19T11:28:00;3.17;;;0.98;;
39020;SDS011;25188;51.958;5.842;2022-07-19T11:30:28;3.65;;;0.95;;
39020;SDS011;25188;51.958;5.842;2022-07-19T11:33:01;5.60;;;1.27;;
39020;SDS011;25188;51.958;5.842;2022-07-19T11:35:29;3.78;;;1.17;;
39020;SDS011;25188;51.958;5.842;2022-07-19T11:37:55;2.25;;;0.90;;
39020;SDS011;25188;51.958;5.842;2022-07-19T11:40:24;3.60;;;1.15;;
39020;SDS011;25188;51.958;5.842;2022-07-19T11:42:56;3.97;;;0.85;;
39020;SDS011;25188;51.958;5.842;2022-07-19T11:45:25;4.43;;;1.10;;
39020;SDS011;25188;51.958;5.842;2022-07-19T11:47:55;3.97;;;1.02;;
39020;SDS011;25188;51.958;5.842;2022-07-19T11:50:24;2.35;;;0.73;;
39020;SDS011;25188;51.958;5.842;2022-07-19T11:52:55;3.10;;;0.77;;
39020;SDS011;25188;51.958;5.842;2022-07-19T11:55:26;5.10;;;0.90;;
39020;SDS011;25188;51.958;5.842;2022-07-19T11:57:53;5.03;;;1.10;;
39020;SDS011;25188;51.958;5.842;2022-07-19T12:00:21;6.35;;;1.00;;
39020;SDS011;25188;51.958;5.842;2022-07-19T12:02:51;3.08;;;1.00;;
39020;SDS011;25188;51.958;5.842;2022-07-19T12:05:23;2.33;;;1.00;;
39020;SDS011;25188;51.958;5.842;2022-07-19T12:07:52;5.45;;;1.27;;
39020;SDS011;25188;51.958;5.842;2022-07-19T12:13:05;3.80;;;0.95;;
39020;SDS011;25188;51.958;5.842;2022-07-19T12:18:19;4.57;;;0.75;;
39020;SDS011;25188;51.958;5.842;2022-07-19T12:26:37;2.15;;;0.82;;
39020;SDS011;25188;51.958;5.842;2022-07-19T12:32:00;6.18;;;1.00;;
39020;SDS011;25188;51.958;5.842;2022-07-19T12:34:43;4.28;;;0.80;;
39020;SDS011;25188;51.958;5.842;2022-07-19T12:37:23;4.55;;;0.77;;
39020;SDS011;25188;51.958;5.842;2022-07-19T12:45:21;2.75;;;0.90;;
39020;SDS011;25188;51.958;5.842;2022-07-19T12:47:48;3.20;;;0.93;;
39020;SDS011;25188;51.958;5.842;2022-07-19T12:50:19;8.45;;;0.85;;
39020;SDS011;25188;51.958;5.842;2022-07-19T12:52:46;4.65;;;0.75;;
39020;SDS011;25188;51.958;5.842;2022-07-19T12:55:12;2.53;;;0.88;;
39020;SDS011;25188;51.958;5.842;2022-07-19T12:57:41;3.92;;;0.93;;
39020;SDS011;25188;51.958;5.842;2022-07-19T13:00:09;9.73;;;1.35;;
39020;SDS011;25188;51.958;5.842;2022-07-19T13:02:35;2.90;;;0.95;;
39020;SDS011;25188;51.958;5.842;2022-07-19T13:05:01;4.85;;;1.17;;
39020;SDS011;25188;51.958;5.842;2022-07-19T13:07:26;3.97;;;1.08;;
39020;SDS011;25188;51.958;5.842;2022-07-19T13:09:52;4.43;;;0.80;;
39020;SDS011;25188;51.958;5.842;2022-07-19T13:12:18;3.80;;;0.95;;
39020;SDS011;25188;51.958;5.842;2022-07-19T13:14:45;4.32;;;1.13;;
39020;SDS011;25188;51.958;5.842;2022-07-19T13:17:10;5.43;;;1.20;;
39020;SDS011;25188;51.958;5.842;2022-07-19T13:19:37;2.55;;;1.10;;
39020;SDS011;25188;51.958;5.842;2022-07-19T13:22:04;3.92;;;1.45;;
39020;SDS011;25188;51.958;5.842;2022-07-19T13:24:33;3.05;;;0.95;;
39020;SDS011;25188;51.958;5.842;2022-07-19T13:26:59;4.70;;;1.20;;
39020;SDS011;25188;51.958;5.842;2022-07-19T13:29:25;2.88;;;0.90;;
39020;SDS011;25188;51.958;5.842;2022-07-19T13:31:50;5.22;;;1.45;;
39020;SDS011;25188;51.958;5.842;2022-07-19T13:34:16;5.00;;;0.95;;
39020;SDS011;25188;51.958;5.842;2022-07-19T13:36:42;4.50;;;0.95;;
39020;SDS011;25188;51.958;5.842;2022-07-19T13:39:08;3.28;;;1.00;;
39020;SDS011;25188;51.958;5.842;2022-07-19T13:41:35;3.53;;;0.70;;
39020;SDS011;25188;51.958;5.842;2022-07-19T13:44:11;5.25;;;1.13;;
39020;SDS011;25188;51.958;5.842;2022-07-19T13:46:43;2.65;;;1.17;;
39020;SDS011;25188;51.958;5.842;2022-07-19T13:49:08;3.78;;;0.80;;
39020;SDS011;25188;51.958;5.842;2022-07-19T13:51:34;3.85;;;0.85;;
39020;SDS011;25188;51.958;5.842;2022-07-19T13:54:00;6.20;;;0.90;;
39020;SDS011;25188;51.958;5.842;2022-07-19T13:56:29;3.47;;;0.80;;
39020;SDS011;25188;51.958;5.842;2022-07-19T13:58:55;1.75;;;0.70;;
39020;SDS011;25188;51.958;5.842;2022-07-19T14:01:21;3.78;;;1.20;;
39020;SDS011;25188;51.958;5.842;2022-07-19T14:03:52;2.63;;;0.73;;
39020;SDS011;25188;51.958;5.842;2022-07-19T14:06:20;4.10;;;0.80;;
39020;SDS011;25188;51.958;5.842;2022-07-19T14:08:52;7.47;;;0.88;;
39020;SDS011;25188;51.958;5.842;2022-07-19T14:11:19;2.95;;;0.80;;
39020;SDS011;25188;51.958;5.842;2022-07-19T14:13:45;2.08;;;0.60;;
39020;SDS011;25188;51.958;5.842;2022-07-19T14:16:14;3.70;;;0.73;;
39020;SDS011;25188;51.958;5.842;2022-07-19T14:18:41;5.20;;;0.70;;
39020;SDS011;25188;51.958;5.842;2022-07-19T14:21:06;4.47;;;0.85;;
39020;SDS011;25188;51.958;5.842;2022-07-19T14:23:32;2.70;;;0.85;;
39020;SDS011;25188;51.958;5.842;2022-07-19T14:25:58;3.42;;;0.70;;
39020;SDS011;25188;51.958;5.842;2022-07-19T14:28:26;4.63;;;0.95;;
39020;SDS011;25188;51.958;5.842;2022-07-19T14:30:52;3.88;;;0.98;;
39020;SDS011;25188;51.958;5.842;2022-07-19T14:33:18;2.42;;;1.00;;
39020;SDS011;25188;51.958;5.842;2022-07-19T14:35:43;3.83;;;1.50;;
39020;SDS011;25188;51.958;5.842;2022-07-19T14:38:09;2.83;;;1.02;;
39020;SDS011;25188;51.958;5.842;2022-07-19T14:40:35;4.53;;;0.95;;
39020;SDS011;25188;51.958;5.842;2022-07-19T14:43:01;4.45;;;1.10;;
39020;SDS011;25188;51.958;5.842;2022-07-19T14:45:27;6.60;;;1.20;;
39020;SDS011;25188;51.958;5.842;2022-07-19T14:47:53;2.78;;;0.85;;
39020;SDS011;25188;51.958;5.842;2022-07-19T14:50:18;3.78;;;1.00;;
39020;SDS011;25188;51.958;5.842;2022-07-19T14:52:44;3.10;;;0.95;;
39020;SDS011;25188;51.958;5.842;2022-07-19T14:55:10;5.75;;;1.30;;
39020;SDS011;25188;51.958;5.842;2022-07-19T14:57:36;4.15;;;1.10;;
39020;SDS011;25188;51.958;5.842;2022-07-19T15:00:06;5.18;;;1.30;;
39020;SDS011;25188;51.958;5.842;2022-07-19T15:02:33;3.13;;;1.20;;
39020;SDS011;25188;51.958;5.842;2022-07-19T15:04:59;1.77;;;0.90;;
39020;SDS011;25188;51.958;5.842;2022-07-19T15:07:25;4.70;;;1.10;;
39020;SDS011;25188;51.958;5.842;2022-07-19T15:09:51;4.82;;;1.30;;
39020;SDS011;25188;51.958;5.842;2022-07-19T15:12:17;4.15;;;1.30;;
39020;SDS011;25188;51.958;5.842;2022-07-19T15:14:43;5.53;;;1.30;;
39020;SDS011;25188;51.958;5.842;2022-07-19T15:17:09;6.72;;;1.08;;
39020;SDS011;25188;51.958;5.842;2022-07-19T15:19:34;2.38;;;1.13;;
39020;SDS011;25188;51.958;5.842;2022-07-19T15:22:00;3.78;;;0.90;;
39020;SDS011;25188;51.958;5.842;2022-07-19T15:24:26;5.15;;;0.85;;
39020;SDS011;25188;51.958;5.842;2022-07-19T15:26:52;3.75;;;0.77;;
39020;SDS011;25188;51.958;5.842;2022-07-19T15:29:18;3.38;;;1.05;;
39020;SDS011;25188;51.958;5.842;2022-07-19T15:31:43;4.18;;;1.00;;